sensor_id;sensor_type;location;lat;lon;timestamp;temperature;humidity
59505;DHT22;45321;53.200;5.814;2022-07-10T00:00:26;17.00;64.80
59505;DHT22;45321;53.200;5.814;2022-07-10T00:02:52;17.00;64.70
59505;DHT22;45321;53.200;5.814;2022-07-10T00:05:18;17.00;64.70
59505;DHT22;45321;53.200;5.814;2022-07-10T00:07:45;17.00;64.80
59505;DHT22;45321;53.200;5.814;2022-07-10T00:10:11;16.90;64.40
59505;DHT22;45321;53.200;5.814;2022-07-10T00:12:37;16.90;65.10
59505;DHT22;45321;53.200;5.814;2022-07-10T00:15:04;16.90;64.60
59505;DHT22;45321;53.200;5.814;2022-07-10T00:17:31;16.80;64.70
59505;DHT22;45321;53.200;5.814;2022-07-10T00:19:57;16.80;64.80
59505;DHT22;45321;53.200;5.814;2022-07-10T00:22:22;16.80;64.80
59505;DHT22;45321;53.200;5.814;2022-07-10T00:24:48;16.80;65.50
59505;DHT22;45321;53.200;5.814;2022-07-10T00:27:19;16.70;65.20
59505;DHT22;45321;53.200;5.814;2022-07-10T00:29:45;16.70;65.30
59505;DHT22;45321;53.200;5.814;2022-07-10T00:32:11;16.70;65.60
59505;DHT22;45321;53.200;5.814;2022-07-10T00:34:37;16.70;65.50
59505;DHT22;45321;53.200;5.814;2022-07-10T00:37:04;16.70;65.10
59505;DHT22;45321;53.200;5.814;2022-07-10T00:39:30;16.70;65.70
59505;DHT22;45321;53.200;5.814;2022-07-10T00:42:09;16.70;65.90
59505;DHT22;45321;53.200;5.814;2022-07-10T00:44:35;16.70;66.30
59505;DHT22;45321;53.200;5.814;2022-07-10T00:47:02;16.70;65.60
59505;DHT22;45321;53.200;5.814;2022-07-10T00:49:28;16.60;65.80
59505;DHT22;45321;53.200;5.814;2022-07-10T00:51:54;16.70;66.30
59505;DHT22;45321;53.200;5.814;2022-07-10T00:54:21;16.70;66.40
59505;DHT22;45321;53.200;5.814;2022-07-10T00:56:46;16.70;66.50
59505;DHT22;45321;53.200;5.814;2022-07-10T00:59:13;16.70;66.50
59505;DHT22;45321;53.200;5.814;2022-07-10T01:01:39;16.70;67.00
59505;DHT22;45321;53.200;5.814;2022-07-10T01:04:05;16.60;66.20
59505;DHT22;45321;53.200;5.814;2022-07-10T01:06:31;16.60;66.90
59505;DHT22;45321;53.200;5.814;2022-07-10T01:08:58;16.60;66.40
59505;DHT22;45321;53.200;5.814;2022-07-10T01:11:23;16.70;66.30
59505;DHT22;45321;53.200;5.814;2022-07-10T01:13:49;16.60;65.10
59505;DHT22;45321;53.200;5.814;2022-07-10T01:16:15;16.70;65.70
59505;DHT22;45321;53.200;5.814;2022-07-10T01:18:42;16.70;65.00
59505;DHT22;45321;53.200;5.814;2022-07-10T01:21:31;16.60;64.50
59505;DHT22;45321;53.200;5.814;2022-07-10T01:23:57;16.60;64.60
59505;DHT22;45321;53.200;5.814;2022-07-10T01:26:24;16.60;64.80
59505;DHT22;45321;53.200;5.814;2022-07-10T01:28:51;16.60;64.30
59505;DHT22;45321;53.200;5.814;2022-07-10T01:31:24;16.60;64.10
59505;DHT22;45321;53.200;5.814;2022-07-10T01:33:50;16.60;64.20
59505;DHT22;45321;53.200;5.814;2022-07-10T01:36:16;16.60;64.80
59505;DHT22;45321;53.200;5.814;2022-07-10T01:38:43;16.60;64.30
59505;DHT22;45321;53.200;5.814;2022-07-10T01:41:09;16.60;64.20
59505;DHT22;45321;53.200;5.814;2022-07-10T01:43:36;16.60;64.00
59505;DHT22;45321;53.200;5.814;2022-07-10T01:46:02;16.60;64.20
59505;DHT22;45321;53.200;5.814;2022-07-10T01:48:29;16.60;63.90
59505;DHT22;45321;53.200;5.814;2022-07-10T01:50:56;16.60;64.20
59505;DHT22;45321;53.200;5.814;2022-07-10T01:53:22;16.60;64.10
59505;DHT22;45321;53.200;5.814;2022-07-10T01:55:47;16.60;64.70
59505;DHT22;45321;53.200;5.814;2022-07-10T01:58:13;16.60;65.40
59505;DHT22;45321;53.200;5.814;2022-07-10T02:00:39;16.60;65.00
59505;DHT22;45321;53.200;5.814;2022-07-10T02:03:05;16.60;65.30
59505;DHT22;45321;53.200;5.814;2022-07-10T02:05:49;16.60;66.20
59505;DHT22;45321;53.200;5.814;2022-07-10T02:08:15;16.60;66.40
59505;DHT22;45321;53.200;5.814;2022-07-10T02:10:41;16.60;66.50
59505;DHT22;45321;53.200;5.814;2022-07-10T02:13:07;16.60;66.80
59505;DHT22;45321;53.200;5.814;2022-07-10T02:15:32;16.60;66.70
59505;DHT22;45321;53.200;5.814;2022-07-10T02:17:58;16.60;67.50
59505;DHT22;45321;53.200;5.814;2022-07-10T02:20:24;16.60;67.30
59505;DHT22;45321;53.200;5.814;2022-07-10T02:22:49;16.60;67.60
59505;DHT22;45321;53.200;5.814;2022-07-10T02:25:15;16.70;67.10
59505;DHT22;45321;53.200;5.814;2022-07-10T02:27:41;16.70;67.30
59505;DHT22;45321;53.200;5.814;2022-07-10T02:30:07;16.70;67.30
59505;DHT22;45321;53.200;5.814;2022-07-10T02:32:32;16.70;68.20
59505;DHT22;45321;53.200;5.814;2022-07-10T02:34:58;16.70;68.00
59505;DHT22;45321;53.200;5.814;2022-07-10T02:37:24;16.70;68.50
59505;DHT22;45321;53.200;5.814;2022-07-10T02:39:50;16.70;69.00
59505;DHT22;45321;53.200;5.814;2022-07-10T02:42:16;16.70;68.70
59505;DHT22;45321;53.200;5.814;2022-07-10T02:44:42;16.70;68.50
59505;DHT22;45321;53.200;5.814;2022-07-10T02:47:07;16.70;69.10
59505;DHT22;45321;53.200;5.814;2022-07-10T02:49:33;16.70;69.50
59505;DHT22;45321;53.200;5.814;2022-07-10T02:51:59;16.70;69.30
59505;DHT22;45321;53.200;5.814;2022-07-10T02:54:24;16.70;69.20
59505;DHT22;45321;53.200;5.814;2022-07-10T02:56:50;16.70;70.40
59505;DHT22;45321;53.200;5.814;2022-07-10T02:59:16;16.70;69.40
59505;DHT22;45321;53.200;5.814;2022-07-10T03:01:44;16.70;69.70
59505;DHT22;45321;53.200;5.814;2022-07-10T03:04:09;16.70;70.00
59505;DHT22;45321;53.200;5.814;2022-07-10T03:06:35;16.80;70.00
59505;DHT22;45321;53.200;5.814;2022-07-10T03:09:01;16.70;69.60
59505;DHT22;45321;53.200;5.814;2022-07-10T03:11:27;16.70;70.10
59505;DHT22;45321;53.200;5.814;2022-07-10T03:13:53;16.70;71.60
59505;DHT22;45321;53.200;5.814;2022-07-10T03:16:19;16.70;71.80
59505;DHT22;45321;53.200;5.814;2022-07-10T03:18:44;16.70;71.50
59505;DHT22;45321;53.200;5.814;2022-07-10T03:21:11;16.60;71.50
59505;DHT22;45321;53.200;5.814;2022-07-10T03:23:37;16.60;72.10
59505;DHT22;45321;53.200;5.814;2022-07-10T03:26:05;16.60;73.00
59505;DHT22;45321;53.200;5.814;2022-07-10T03:28:31;16.60;72.90
59505;DHT22;45321;53.200;5.814;2022-07-10T03:30:56;16.60;73.20
59505;DHT22;45321;53.200;5.814;2022-07-10T03:33:22;16.60;73.70
59505;DHT22;45321;53.200;5.814;2022-07-10T03:35:48;16.60;73.20
59505;DHT22;45321;53.200;5.814;2022-07-10T03:38:14;16.60;72.90
59505;DHT22;45321;53.200;5.814;2022-07-10T03:40:39;16.50;73.50
59505;DHT22;45321;53.200;5.814;2022-07-10T03:43:05;16.50;73.80
59505;DHT22;45321;53.200;5.814;2022-07-10T03:45:31;16.50;74.20
59505;DHT22;45321;53.200;5.814;2022-07-10T03:47:57;16.50;73.80
59505;DHT22;45321;53.200;5.814;2022-07-10T03:50:23;16.50;75.10
59505;DHT22;45321;53.200;5.814;2022-07-10T03:52:49;16.50;75.50
59505;DHT22;45321;53.200;5.814;2022-07-10T03:55:14;16.50;74.80
59505;DHT22;45321;53.200;5.814;2022-07-10T03:57:40;16.50;76.20
59505;DHT22;45321;53.200;5.814;2022-07-10T04:00:29;16.50;75.90
59505;DHT22;45321;53.200;5.814;2022-07-10T04:03:05;16.40;75.40
59505;DHT22;45321;53.200;5.814;2022-07-10T04:05:31;16.40;75.70
59505;DHT22;45321;53.200;5.814;2022-07-10T04:07:57;16.40;75.00
59505;DHT22;45321;53.200;5.814;2022-07-10T04:10:24;16.40;75.20
59505;DHT22;45321;53.200;5.814;2022-07-10T04:12:50;16.50;74.90
59505;DHT22;45321;53.200;5.814;2022-07-10T04:15:17;16.40;75.40
59505;DHT22;45321;53.200;5.814;2022-07-10T04:17:43;16.40;74.60
59505;DHT22;45321;53.200;5.814;2022-07-10T04:20:09;16.40;75.20
59505;DHT22;45321;53.200;5.814;2022-07-10T04:22:35;16.50;74.40
59505;DHT22;45321;53.200;5.814;2022-07-10T04:25:02;16.50;74.70
59505;DHT22;45321;53.200;5.814;2022-07-10T04:27:28;16.40;75.70
59505;DHT22;45321;53.200;5.814;2022-07-10T04:29:54;16.40;75.60
59505;DHT22;45321;53.200;5.814;2022-07-10T04:32:20;16.50;75.30
59505;DHT22;45321;53.200;5.814;2022-07-10T04:34:46;16.50;76.00
59505;DHT22;45321;53.200;5.814;2022-07-10T04:37:11;16.50;76.10
59505;DHT22;45321;53.200;5.814;2022-07-10T04:39:37;16.50;75.30
59505;DHT22;45321;53.200;5.814;2022-07-10T04:42:08;16.60;75.60
59505;DHT22;45321;53.200;5.814;2022-07-10T04:44:34;16.50;76.20
59505;DHT22;45321;53.200;5.814;2022-07-10T04:47:02;16.60;75.40
59505;DHT22;45321;53.200;5.814;2022-07-10T04:49:28;16.60;75.30
59505;DHT22;45321;53.200;5.814;2022-07-10T04:51:54;16.60;75.70
59505;DHT22;45321;53.200;5.814;2022-07-10T04:54:20;16.60;76.90
59505;DHT22;45321;53.200;5.814;2022-07-10T04:56:46;16.60;77.40
59505;DHT22;45321;53.200;5.814;2022-07-10T04:59:11;16.60;78.10
59505;DHT22;45321;53.200;5.814;2022-07-10T05:01:37;16.60;76.70
59505;DHT22;45321;53.200;5.814;2022-07-10T05:04:03;16.60;76.70
59505;DHT22;45321;53.200;5.814;2022-07-10T05:06:30;16.60;78.40
59505;DHT22;45321;53.200;5.814;2022-07-10T05:08:56;16.60;77.30
59505;DHT22;45321;53.200;5.814;2022-07-10T05:11:22;16.60;77.90
59505;DHT22;45321;53.200;5.814;2022-07-10T05:13:48;16.70;77.50
59505;DHT22;45321;53.200;5.814;2022-07-10T05:16:15;16.70;78.30
59505;DHT22;45321;53.200;5.814;2022-07-10T05:18:41;16.70;78.60
59505;DHT22;45321;53.200;5.814;2022-07-10T05:21:07;16.70;78.40
59505;DHT22;45321;53.200;5.814;2022-07-10T05:23:33;16.60;79.90
59505;DHT22;45321;53.200;5.814;2022-07-10T05:25:59;16.60;80.00
59505;DHT22;45321;53.200;5.814;2022-07-10T05:28:25;16.50;81.50
59505;DHT22;45321;53.200;5.814;2022-07-10T05:30:51;16.60;81.80
59505;DHT22;45321;53.200;5.814;2022-07-10T05:33:17;16.60;81.90
59505;DHT22;45321;53.200;5.814;2022-07-10T05:35:43;16.50;81.90
59505;DHT22;45321;53.200;5.814;2022-07-10T05:38:10;16.50;80.90
59505;DHT22;45321;53.200;5.814;2022-07-10T05:40:36;16.50;81.50
59505;DHT22;45321;53.200;5.814;2022-07-10T05:43:02;16.50;80.60
59505;DHT22;45321;53.200;5.814;2022-07-10T05:45:28;16.50;82.20
59505;DHT22;45321;53.200;5.814;2022-07-10T05:47:54;16.50;82.10
59505;DHT22;45321;53.200;5.814;2022-07-10T05:50:19;16.60;80.70
59505;DHT22;45321;53.200;5.814;2022-07-10T05:52:45;16.60;81.80
59505;DHT22;45321;53.200;5.814;2022-07-10T05:55:11;16.60;82.30
59505;DHT22;45321;53.200;5.814;2022-07-10T05:57:36;16.60;81.70
59505;DHT22;45321;53.200;5.814;2022-07-10T06:00:04;16.60;81.90
59505;DHT22;45321;53.200;5.814;2022-07-10T06:02:30;16.70;82.10
59505;DHT22;45321;53.200;5.814;2022-07-10T06:04:56;16.80;81.80
59505;DHT22;45321;53.200;5.814;2022-07-10T06:07:22;16.80;81.70
59505;DHT22;45321;53.200;5.814;2022-07-10T06:09:48;16.80;81.30
59505;DHT22;45321;53.200;5.814;2022-07-10T06:12:14;16.90;81.50
59505;DHT22;45321;53.200;5.814;2022-07-10T06:14:41;16.90;81.30
59505;DHT22;45321;53.200;5.814;2022-07-10T06:17:07;17.00;81.20
59505;DHT22;45321;53.200;5.814;2022-07-10T06:19:33;17.00;81.40
59505;DHT22;45321;53.200;5.814;2022-07-10T06:21:59;17.00;81.40
59505;DHT22;45321;53.200;5.814;2022-07-10T06:24:43;17.10;81.90
59505;DHT22;45321;53.200;5.814;2022-07-10T06:27:09;17.10;80.50
59505;DHT22;45321;53.200;5.814;2022-07-10T06:29:34;17.00;81.70
59505;DHT22;45321;53.200;5.814;2022-07-10T06:32:00;17.00;82.00
59505;DHT22;45321;53.200;5.814;2022-07-10T06:34:26;17.00;81.10
59505;DHT22;45321;53.200;5.814;2022-07-10T06:36:52;17.00;81.00
59505;DHT22;45321;53.200;5.814;2022-07-10T06:39:18;17.00;80.70
59505;DHT22;45321;53.200;5.814;2022-07-10T06:41:43;17.00;81.20
59505;DHT22;45321;53.200;5.814;2022-07-10T06:44:09;16.90;81.70
59505;DHT22;45321;53.200;5.814;2022-07-10T06:46:35;16.90;80.40
59505;DHT22;45321;53.200;5.814;2022-07-10T06:49:02;16.90;81.50
59505;DHT22;45321;53.200;5.814;2022-07-10T06:51:28;16.90;81.20
59505;DHT22;45321;53.200;5.814;2022-07-10T06:53:55;16.90;82.00
59505;DHT22;45321;53.200;5.814;2022-07-10T06:56:21;16.90;82.00
59505;DHT22;45321;53.200;5.814;2022-07-10T06:58:47;16.80;81.80
59505;DHT22;45321;53.200;5.814;2022-07-10T07:01:13;16.80;80.90
59505;DHT22;45321;53.200;5.814;2022-07-10T07:03:38;16.80;82.40
59505;DHT22;45321;53.200;5.814;2022-07-10T07:06:04;16.80;82.40
59505;DHT22;45321;53.200;5.814;2022-07-10T07:08:30;16.80;83.10
59505;DHT22;45321;53.200;5.814;2022-07-10T07:10:56;16.80;82.00
59505;DHT22;45321;53.200;5.814;2022-07-10T07:13:21;16.80;81.70
59505;DHT22;45321;53.200;5.814;2022-07-10T07:15:47;16.80;81.60
59505;DHT22;45321;53.200;5.814;2022-07-10T07:18:24;16.80;81.70
59505;DHT22;45321;53.200;5.814;2022-07-10T07:20:58;16.80;82.20
59505;DHT22;45321;53.200;5.814;2022-07-10T07:23:43;16.80;82.40
59505;DHT22;45321;53.200;5.814;2022-07-10T07:26:08;16.80;82.60
59505;DHT22;45321;53.200;5.814;2022-07-10T07:28:34;16.80;82.10
59505;DHT22;45321;53.200;5.814;2022-07-10T07:31:00;16.80;81.10
59505;DHT22;45321;53.200;5.814;2022-07-10T07:33:25;16.80;82.40
59505;DHT22;45321;53.200;5.814;2022-07-10T07:35:51;16.80;82.30
59505;DHT22;45321;53.200;5.814;2022-07-10T07:38:17;16.80;82.50
59505;DHT22;45321;53.200;5.814;2022-07-10T07:40:42;16.90;82.00
59505;DHT22;45321;53.200;5.814;2022-07-10T07:43:08;16.90;81.80
59505;DHT22;45321;53.200;5.814;2022-07-10T07:45:34;16.90;82.00
59505;DHT22;45321;53.200;5.814;2022-07-10T07:48:00;16.90;82.10
59505;DHT22;45321;53.200;5.814;2022-07-10T07:50:35;17.00;82.70
59505;DHT22;45321;53.200;5.814;2022-07-10T07:53:02;17.00;81.70
59505;DHT22;45321;53.200;5.814;2022-07-10T07:55:30;17.00;82.30
59505;DHT22;45321;53.200;5.814;2022-07-10T07:57:56;17.00;82.00
59505;DHT22;45321;53.200;5.814;2022-07-10T08:00:24;17.20;82.80
59505;DHT22;45321;53.200;5.814;2022-07-10T08:02:51;17.30;82.20
59505;DHT22;45321;53.200;5.814;2022-07-10T08:05:17;17.40;82.50
59505;DHT22;45321;53.200;5.814;2022-07-10T08:07:45;17.60;81.80
59505;DHT22;45321;53.200;5.814;2022-07-10T08:10:13;17.70;81.10
59505;DHT22;45321;53.200;5.814;2022-07-10T08:12:40;17.80;80.90
59505;DHT22;45321;53.200;5.814;2022-07-10T08:15:14;17.80;79.60
59505;DHT22;45321;53.200;5.814;2022-07-10T08:17:41;17.80;78.90
59505;DHT22;45321;53.200;5.814;2022-07-10T08:20:10;17.70;78.70
59505;DHT22;45321;53.200;5.814;2022-07-10T08:22:36;17.60;78.70
59505;DHT22;45321;53.200;5.814;2022-07-10T08:25:02;17.50;79.00
59505;DHT22;45321;53.200;5.814;2022-07-10T08:27:28;17.50;80.20
59505;DHT22;45321;53.200;5.814;2022-07-10T08:29:53;17.40;79.30
59505;DHT22;45321;53.200;5.814;2022-07-10T08:32:19;17.40;79.30
59505;DHT22;45321;53.200;5.814;2022-07-10T08:34:45;17.40;79.30
59505;DHT22;45321;53.200;5.814;2022-07-10T08:37:11;17.40;79.30
59505;DHT22;45321;53.200;5.814;2022-07-10T08:39:36;17.40;79.80
59505;DHT22;45321;53.200;5.814;2022-07-10T08:42:04;17.40;79.20
59505;DHT22;45321;53.200;5.814;2022-07-10T08:44:30;17.40;80.00
59505;DHT22;45321;53.200;5.814;2022-07-10T08:46:56;17.40;79.50
59505;DHT22;45321;53.200;5.814;2022-07-10T08:49:30;17.40;79.30
59505;DHT22;45321;53.200;5.814;2022-07-10T08:52:03;17.30;79.00
59505;DHT22;45321;53.200;5.814;2022-07-10T08:54:30;17.30;79.10
59505;DHT22;45321;53.200;5.814;2022-07-10T08:57:00;17.30;80.00
59505;DHT22;45321;53.200;5.814;2022-07-10T08:59:27;17.40;80.40
59505;DHT22;45321;53.200;5.814;2022-07-10T09:01:54;17.40;79.90
59505;DHT22;45321;53.200;5.814;2022-07-10T09:04:22;17.40;80.60
59505;DHT22;45321;53.200;5.814;2022-07-10T09:06:48;17.50;81.20
59505;DHT22;45321;53.200;5.814;2022-07-10T09:09:14;17.70;81.60
59505;DHT22;45321;53.200;5.814;2022-07-10T09:11:40;17.80;80.90
59505;DHT22;45321;53.200;5.814;2022-07-10T09:14:11;17.90;81.20
59505;DHT22;45321;53.200;5.814;2022-07-10T09:16:40;18.10;80.30
59505;DHT22;45321;53.200;5.814;2022-07-10T09:19:26;18.20;79.10
59505;DHT22;45321;53.200;5.814;2022-07-10T09:22:06;18.20;78.80
59505;DHT22;45321;53.200;5.814;2022-07-10T09:24:46;18.20;78.80
59505;DHT22;45321;53.200;5.814;2022-07-10T09:27:14;18.30;77.90
59505;DHT22;45321;53.200;5.814;2022-07-10T09:29:52;18.30;77.90
59505;DHT22;45321;53.200;5.814;2022-07-10T09:32:23;18.20;77.20
59505;DHT22;45321;53.200;5.814;2022-07-10T09:34:51;18.20;77.20
59505;DHT22;45321;53.200;5.814;2022-07-10T09:37:39;18.20;76.80
59505;DHT22;45321;53.200;5.814;2022-07-10T09:40:05;18.20;77.20
59505;DHT22;45321;53.200;5.814;2022-07-10T09:42:36;18.20;76.90
59505;DHT22;45321;53.200;5.814;2022-07-10T09:50:30;18.20;76.90
59505;DHT22;45321;53.200;5.814;2022-07-10T09:52:58;18.30;76.00
59505;DHT22;45321;53.200;5.814;2022-07-10T09:55:30;18.20;76.30
59505;DHT22;45321;53.200;5.814;2022-07-10T09:58:00;18.20;76.60
59505;DHT22;45321;53.200;5.814;2022-07-10T10:00:29;18.20;76.00
59505;DHT22;45321;53.200;5.814;2022-07-10T10:03:06;18.20;76.50
59505;DHT22;45321;53.200;5.814;2022-07-10T10:05:55;18.20;76.30
59505;DHT22;45321;53.200;5.814;2022-07-10T10:08:37;18.10;76.30
59505;DHT22;45321;53.200;5.814;2022-07-10T10:11:07;18.20;76.60
59505;DHT22;45321;53.200;5.814;2022-07-10T10:13:34;18.20;76.00
59505;DHT22;45321;53.200;5.814;2022-07-10T10:16:02;18.20;76.30
59505;DHT22;45321;53.200;5.814;2022-07-10T10:18:28;18.10;75.60
59505;DHT22;45321;53.200;5.814;2022-07-10T10:20:55;18.10;75.80
59505;DHT22;45321;53.200;5.814;2022-07-10T10:23:23;18.00;76.10
59505;DHT22;45321;53.200;5.814;2022-07-10T10:25:52;18.00;76.50
59505;DHT22;45321;53.200;5.814;2022-07-10T10:28:20;18.00;76.30
59505;DHT22;45321;53.200;5.814;2022-07-10T10:30:51;18.10;76.40
59505;DHT22;45321;53.200;5.814;2022-07-10T10:36:04;18.00;76.00
59505;DHT22;45321;53.200;5.814;2022-07-10T10:41:38;18.00;75.70
59505;DHT22;45321;53.200;5.814;2022-07-10T10:49:21;18.10;74.40
59505;DHT22;45321;53.200;5.814;2022-07-10T10:52:09;18.20;73.90
59505;DHT22;45321;53.200;5.814;2022-07-10T10:59:58;18.20;73.40
59505;DHT22;45321;53.200;5.814;2022-07-10T11:02:26;18.20;73.30
59505;DHT22;45321;53.200;5.814;2022-07-10T11:07:58;18.20;72.90
59505;DHT22;45321;53.200;5.814;2022-07-10T11:10:39;18.30;74.30
59505;DHT22;45321;53.200;5.814;2022-07-10T11:13:13;18.40;73.00
59505;DHT22;45321;53.200;5.814;2022-07-10T11:15:41;18.40;72.10
59505;DHT22;45321;53.200;5.814;2022-07-10T11:20:40;18.50;72.10
59505;DHT22;45321;53.200;5.814;2022-07-10T11:26:06;18.50;71.50
59505;DHT22;45321;53.200;5.814;2022-07-10T11:28:57;18.50;71.30
59505;DHT22;45321;53.200;5.814;2022-07-10T11:31:25;18.60;71.50
59505;DHT22;45321;53.200;5.814;2022-07-10T11:33:55;18.60;71.70
59505;DHT22;45321;53.200;5.814;2022-07-10T11:36:26;18.60;71.90
59505;DHT22;45321;53.200;5.814;2022-07-10T11:39:12;18.70;72.20
59505;DHT22;45321;53.200;5.814;2022-07-10T11:41:45;18.70;71.70
59505;DHT22;45321;53.200;5.814;2022-07-10T11:44:16;18.80;72.10
59505;DHT22;45321;53.200;5.814;2022-07-10T11:46:43;18.80;71.30
59505;DHT22;45321;53.200;5.814;2022-07-10T11:49:11;18.80;71.30
59505;DHT22;45321;53.200;5.814;2022-07-10T11:51:39;18.80;71.80
59505;DHT22;45321;53.200;5.814;2022-07-10T11:54:16;18.90;71.40
59505;DHT22;45321;53.200;5.814;2022-07-10T11:56:52;18.90;71.20
59505;DHT22;45321;53.200;5.814;2022-07-10T11:59:27;19.00;71.00
59505;DHT22;45321;53.200;5.814;2022-07-10T12:01:54;19.00;70.50
59505;DHT22;45321;53.200;5.814;2022-07-10T12:04:22;19.10;70.20
59505;DHT22;45321;53.200;5.814;2022-07-10T12:06:50;19.10;70.30
59505;DHT22;45321;53.200;5.814;2022-07-10T12:09:18;19.20;70.00
59505;DHT22;45321;53.200;5.814;2022-07-10T12:12:02;19.20;69.70
59505;DHT22;45321;53.200;5.814;2022-07-10T12:14:28;19.30;70.60
59505;DHT22;45321;53.200;5.814;2022-07-10T12:16:55;19.40;70.10
59505;DHT22;45321;53.200;5.814;2022-07-10T12:19:30;19.50;69.60
59505;DHT22;45321;53.200;5.814;2022-07-10T12:21:59;19.60;69.50
59505;DHT22;45321;53.200;5.814;2022-07-10T12:24:26;19.70;69.90
59505;DHT22;45321;53.200;5.814;2022-07-10T12:26:52;19.90;69.00
59505;DHT22;45321;53.200;5.814;2022-07-10T12:29:19;20.10;68.10
59505;DHT22;45321;53.200;5.814;2022-07-10T12:31:47;20.20;67.60
59505;DHT22;45321;53.200;5.814;2022-07-10T12:34:13;20.30;67.00
59505;DHT22;45321;53.200;5.814;2022-07-10T12:36:51;20.40;66.80
59505;DHT22;45321;53.200;5.814;2022-07-10T12:39:22;20.50;65.40
59505;DHT22;45321;53.200;5.814;2022-07-10T12:42:05;20.50;66.00
59505;DHT22;45321;53.200;5.814;2022-07-10T12:47:10;20.70;64.80
59505;DHT22;45321;53.200;5.814;2022-07-10T12:49:56;20.80;65.10
59505;DHT22;45321;53.200;5.814;2022-07-10T12:52:28;20.90;64.50
59505;DHT22;45321;53.200;5.814;2022-07-10T12:57:56;21.20;64.10
59505;DHT22;45321;53.200;5.814;2022-07-10T13:00:30;21.30;63.90
59505;DHT22;45321;53.200;5.814;2022-07-10T13:03:05;21.30;63.10
59505;DHT22;45321;53.200;5.814;2022-07-10T13:05:36;21.40;64.50
59505;DHT22;45321;53.200;5.814;2022-07-10T13:08:08;21.50;63.50
59505;DHT22;45321;53.200;5.814;2022-07-10T13:10:38;21.50;64.20
59505;DHT22;45321;53.200;5.814;2022-07-10T13:13:05;21.50;63.70
59505;DHT22;45321;53.200;5.814;2022-07-10T13:15:31;21.40;63.60
59505;DHT22;45321;53.200;5.814;2022-07-10T13:17:57;21.30;62.40
59505;DHT22;45321;53.200;5.814;2022-07-10T13:20:23;21.40;62.80
59505;DHT22;45321;53.200;5.814;2022-07-10T13:22:49;21.40;62.50
59505;DHT22;45321;53.200;5.814;2022-07-10T13:25:15;21.50;62.40
59505;DHT22;45321;53.200;5.814;2022-07-10T13:27:40;21.60;62.40
59505;DHT22;45321;53.200;5.814;2022-07-10T13:30:08;21.70;62.80
59505;DHT22;45321;53.200;5.814;2022-07-10T13:32:33;21.80;61.90
59505;DHT22;45321;53.200;5.814;2022-07-10T13:34:59;21.90;63.90
59505;DHT22;45321;53.200;5.814;2022-07-10T13:37:25;22.10;62.00
59505;DHT22;45321;53.200;5.814;2022-07-10T13:39:51;22.10;61.10
59505;DHT22;45321;53.200;5.814;2022-07-10T13:42:17;22.00;61.70
59505;DHT22;45321;53.200;5.814;2022-07-10T13:44:42;22.00;61.60
59505;DHT22;45321;53.200;5.814;2022-07-10T13:47:08;22.00;62.00
59505;DHT22;45321;53.200;5.814;2022-07-10T13:49:34;22.10;63.20
59505;DHT22;45321;53.200;5.814;2022-07-10T13:52:00;22.10;62.30
59505;DHT22;45321;53.200;5.814;2022-07-10T13:54:25;22.10;62.30
59505;DHT22;45321;53.200;5.814;2022-07-10T13:56:51;22.10;62.80
59505;DHT22;45321;53.200;5.814;2022-07-10T13:59:20;22.00;62.90
59505;DHT22;45321;53.200;5.814;2022-07-10T14:01:45;22.00;62.80
59505;DHT22;45321;53.200;5.814;2022-07-10T14:04:11;22.00;63.30
59505;DHT22;45321;53.200;5.814;2022-07-10T14:06:37;22.00;64.20
59505;DHT22;45321;53.200;5.814;2022-07-10T14:09:03;22.10;63.90
59505;DHT22;45321;53.200;5.814;2022-07-10T14:11:28;22.10;64.80
59505;DHT22;45321;53.200;5.814;2022-07-10T14:13:54;22.10;64.40
59505;DHT22;45321;53.200;5.814;2022-07-10T14:16:20;22.20;64.70
59505;DHT22;45321;53.200;5.814;2022-07-10T14:18:46;22.20;64.20
59505;DHT22;45321;53.200;5.814;2022-07-10T14:21:11;22.30;64.80
59505;DHT22;45321;53.200;5.814;2022-07-10T14:23:40;22.20;64.00
59505;DHT22;45321;53.200;5.814;2022-07-10T14:26:14;22.20;64.10
59505;DHT22;45321;53.200;5.814;2022-07-10T14:28:40;22.20;64.70
59505;DHT22;45321;53.200;5.814;2022-07-10T14:31:06;22.20;64.30
59505;DHT22;45321;53.200;5.814;2022-07-10T14:33:33;22.20;64.70
59505;DHT22;45321;53.200;5.814;2022-07-10T14:35:59;22.20;64.40
59505;DHT22;45321;53.200;5.814;2022-07-10T14:38:26;22.20;64.90
59505;DHT22;45321;53.200;5.814;2022-07-10T14:40:52;22.30;64.00
59505;DHT22;45321;53.200;5.814;2022-07-10T14:43:22;22.40;63.70
59505;DHT22;45321;53.200;5.814;2022-07-10T14:45:49;22.40;63.70
59505;DHT22;45321;53.200;5.814;2022-07-10T14:48:15;22.30;64.10
59505;DHT22;45321;53.200;5.814;2022-07-10T14:50:41;22.30;64.30
59505;DHT22;45321;53.200;5.814;2022-07-10T14:53:07;22.30;64.30
59505;DHT22;45321;53.200;5.814;2022-07-10T14:55:34;22.20;64.50
59505;DHT22;45321;53.200;5.814;2022-07-10T14:58:00;22.20;64.80
59505;DHT22;45321;53.200;5.814;2022-07-10T15:00:26;22.20;65.00
59505;DHT22;45321;53.200;5.814;2022-07-10T15:02:52;22.20;65.10
59505;DHT22;45321;53.200;5.814;2022-07-10T15:05:17;22.10;65.20
59505;DHT22;45321;53.200;5.814;2022-07-10T15:07:43;22.00;65.40
59505;DHT22;45321;53.200;5.814;2022-07-10T15:10:09;21.90;65.60
59505;DHT22;45321;53.200;5.814;2022-07-10T15:12:35;21.70;66.00
59505;DHT22;45321;53.200;5.814;2022-07-10T15:15:04;21.70;66.20
59505;DHT22;45321;53.200;5.814;2022-07-10T15:17:29;21.60;66.50
59505;DHT22;45321;53.200;5.814;2022-07-10T15:19:56;21.50;67.50
59505;DHT22;45321;53.200;5.814;2022-07-10T15:22:21;21.50;67.90
59505;DHT22;45321;53.200;5.814;2022-07-10T15:24:47;21.50;68.00
59505;DHT22;45321;53.200;5.814;2022-07-10T15:27:15;21.50;68.60
59505;DHT22;45321;53.200;5.814;2022-07-10T15:29:41;21.50;68.50
59505;DHT22;45321;53.200;5.814;2022-07-10T15:32:07;21.60;68.40
59505;DHT22;45321;53.200;5.814;2022-07-10T15:34:33;21.70;67.90
59505;DHT22;45321;53.200;5.814;2022-07-10T15:36:59;21.70;67.80
59505;DHT22;45321;53.200;5.814;2022-07-10T15:39:24;21.70;66.70
59505;DHT22;45321;53.200;5.814;2022-07-10T15:41:50;21.80;67.20
59505;DHT22;45321;53.200;5.814;2022-07-10T15:44:16;21.80;67.50
59505;DHT22;45321;53.200;5.814;2022-07-10T15:46:41;21.90;66.40
59505;DHT22;45321;53.200;5.814;2022-07-10T15:49:07;21.90;65.50
59505;DHT22;45321;53.200;5.814;2022-07-10T15:51:35;22.00;65.60
59505;DHT22;45321;53.200;5.814;2022-07-10T15:54:01;22.00;66.30
59505;DHT22;45321;53.200;5.814;2022-07-10T15:56:26;22.10;66.00
59505;DHT22;45321;53.200;5.814;2022-07-10T15:58:52;22.10;65.60
59505;DHT22;45321;53.200;5.814;2022-07-10T16:01:18;22.20;66.10
59505;DHT22;45321;53.200;5.814;2022-07-10T16:03:43;22.20;65.80
59505;DHT22;45321;53.200;5.814;2022-07-10T16:06:11;22.20;66.20
59505;DHT22;45321;53.200;5.814;2022-07-10T16:08:37;22.20;65.90